createdAt,value
2023-05-10T00:00:33.152Z,14.10
2023-05-10T00:03:01.258Z,14.10
2023-05-10T00:05:30.767Z,14.10
2023-05-10T00:07:59.119Z,14.10
2023-05-10T00:10:27.364Z,14.10
2023-05-10T00:12:55.245Z,14.00
2023-05-10T00:15:23.422Z,14.00
2023-05-10T00:17:51.404Z,14.00
2023-05-10T00:20:19.552Z,14.00
2023-05-10T00:22:48.945Z,14.00
2023-05-10T00:25:17.116Z,13.90
2023-05-10T00:27:45.026Z,13.90
2023-05-10T00:30:13.433Z,13.90
2023-05-10T00:32:41.501Z,13.80
2023-05-10T00:35:10.566Z,13.80
2023-05-10T00:37:38.507Z,13.80
2023-05-10T00:40:09.209Z,13.80
2023-05-10T00:42:37.205Z,13.70
2023-05-10T00:45:06.037Z,13.70
2023-05-10T00:47:34.355Z,13.70
2023-05-10T00:50:02.874Z,13.70
2023-05-10T00:52:31.452Z,13.70
2023-05-10T00:55:00.518Z,13.70
2023-05-10T00:57:29.994Z,13.70
2023-05-10T00:59:58.823Z,13.60
2023-05-10T01:02:26.938Z,13.60
2023-05-10T01:04:55.250Z,13.60
2023-05-10T01:07:23.274Z,13.60
2023-05-10T01:09:51.337Z,13.50
2023-05-10T01:12:19.547Z,13.60
2023-05-10T01:14:49.378Z,13.50
2023-05-10T01:17:18.068Z,13.50
2023-05-10T01:19:46.028Z,13.50
2023-05-10T01:22:30.984Z,13.40
2023-05-10T01:25:28.108Z,13.40
2023-05-10T01:28:18.453Z,13.40
2023-05-10T01:31:10.421Z,13.40
2023-05-10T01:33:45.268Z,13.30
2023-05-10T01:36:26.850Z,13.30
2023-05-10T01:39:00.913Z,13.30
2023-05-10T01:41:38.254Z,13.30
2023-05-10T01:44:16.366Z,13.30
2023-05-10T01:46:44.527Z,13.20
2023-05-10T01:49:21.778Z,13.20
2023-05-10T01:51:55.673Z,13.20
2023-05-10T01:54:26.233Z,13.20
2023-05-10T01:57:01.071Z,13.20
2023-05-10T01:59:32.590Z,13.10
2023-05-10T02:02:03.290Z,13.10
2023-05-10T02:04:33.748Z,13.00
2023-05-10T02:07:02.051Z,13.00
2023-05-10T02:09:31.924Z,13.00
2023-05-10T02:12:01.829Z,13.00
2023-05-10T02:14:30.876Z,13.00
2023-05-10T02:17:00.492Z,13.00
2023-05-10T02:19:30.967Z,12.90
2023-05-10T02:22:02.228Z,12.90
2023-05-10T02:24:31.501Z,12.90
2023-05-10T02:27:03.886Z,12.90
2023-05-10T02:29:34.393Z,12.80
2023-05-10T02:32:03.366Z,12.80
2023-05-10T02:34:33.075Z,12.80
2023-05-10T02:37:04.715Z,12.80
2023-05-10T02:39:35.100Z,12.70
2023-05-10T02:42:04.803Z,12.70
2023-05-10T02:44:33.663Z,12.70
2023-05-10T02:47:01.677Z,12.60
2023-05-10T02:49:31.200Z,12.60
2023-05-10T02:52:03.250Z,12.60
2023-05-10T02:54:35.048Z,12.60
2023-05-10T02:57:07.834Z,12.60
2023-05-10T02:59:35.983Z,12.60
2023-05-10T03:02:04.977Z,12.60
2023-05-10T03:04:33.274Z,12.60
2023-05-10T03:07:03.461Z,12.60
2023-05-10T03:09:32.141Z,12.50
2023-05-10T03:12:05.952Z,12.50
2023-05-10T03:14:50.269Z,12.50
2023-05-10T03:17:27.770Z,12.50
2023-05-10T03:19:58.106Z,12.50
2023-05-10T03:22:34.425Z,12.50
2023-05-10T03:25:06.507Z,12.50
2023-05-10T03:27:37.547Z,12.50
2023-05-10T03:30:09.917Z,12.50
2023-05-10T03:32:38.229Z,12.50
2023-05-10T03:35:09.366Z,12.50
2023-05-10T03:37:39.058Z,12.50
2023-05-10T03:40:09.100Z,12.40
2023-05-10T03:42:39.199Z,12.40
2023-05-10T03:45:09.097Z,12.40
2023-05-10T03:47:37.044Z,12.40
2023-05-10T03:50:08.686Z,12.40
2023-05-10T03:52:39.909Z,12.40
2023-05-10T03:55:08.769Z,12.40
2023-05-10T03:57:36.689Z,12.40
2023-05-10T04:00:05.348Z,12.40
2023-05-10T04:02:42.438Z,12.40
2023-05-10T04:05:16.122Z,12.40
2023-05-10T04:07:45.845Z,12.40
2023-05-10T04:10:14.242Z,12.40
2023-05-10T04:12:42.574Z,12.50
2023-05-10T04:15:11.248Z,12.40
2023-05-10T04:17:39.224Z,12.40
2023-05-10T04:20:08.630Z,12.40
2023-05-10T04:22:36.645Z,12.50
2023-05-10T04:25:07.057Z,12.50
2023-05-10T04:27:35.120Z,12.50
2023-05-10T04:30:03.222Z,12.50
2023-05-10T04:32:31.806Z,12.60
2023-05-10T04:34:59.785Z,12.60
2023-05-10T04:37:27.728Z,12.60
2023-05-10T04:39:55.805Z,12.60
2023-05-10T04:42:25.202Z,12.60
2023-05-10T04:44:54.100Z,12.60
2023-05-10T04:47:22.202Z,12.60
2023-05-10T04:49:50.205Z,12.60
2023-05-10T04:52:18.882Z,12.70
2023-05-10T04:54:46.834Z,12.70
2023-05-10T04:57:14.737Z,12.70
2023-05-10T04:59:44.539Z,12.80
2023-05-10T05:02:12.633Z,12.80
2023-05-10T05:04:40.616Z,12.70
2023-05-10T05:07:08.705Z,12.70
2023-05-10T05:09:36.607Z,12.80
2023-05-10T05:12:05.167Z,12.80
2023-05-10T05:14:33.150Z,12.80
2023-05-10T05:17:02.597Z,12.90
2023-05-10T05:19:32.856Z,13.00
2023-05-10T05:22:00.817Z,13.00
2023-05-10T05:24:28.685Z,13.10
2023-05-10T05:26:56.670Z,13.30
2023-05-10T05:29:24.553Z,13.50
2023-05-10T05:31:55.333Z,13.60
2023-05-10T05:34:25.250Z,13.70
2023-05-10T05:36:53.485Z,13.80
2023-05-10T05:39:21.410Z,13.80
2023-05-10T05:41:49.401Z,13.90
2023-05-10T05:44:17.277Z,14.10
2023-05-10T05:46:45.389Z,14.20
2023-05-10T05:49:13.326Z,14.40
2023-05-10T05:51:42.607Z,14.60
2023-05-10T05:54:10.505Z,14.80
2023-05-10T05:56:38.871Z,15.00
2023-05-10T05:59:06.903Z,15.20
2023-05-10T06:01:35.888Z,15.30
2023-05-10T06:04:04.030Z,15.50
2023-05-10T06:06:33.127Z,15.50
2023-05-10T06:09:02.557Z,15.60
2023-05-10T06:11:31.620Z,15.70
2023-05-10T06:14:00.199Z,15.90
2023-05-10T06:16:28.182Z,16.10
2023-05-10T06:18:56.325Z,16.20
2023-05-10T06:21:24.340Z,16.40
2023-05-10T06:23:52.277Z,16.60
2023-05-10T06:26:21.870Z,16.80
2023-05-10T06:28:49.754Z,17.10
2023-05-10T06:31:18.655Z,17.30
2023-05-10T06:33:46.950Z,17.60
2023-05-10T06:36:15.125Z,17.70
2023-05-10T06:38:43.002Z,17.70
2023-05-10T06:41:11.017Z,17.70
2023-05-10T06:43:42.108Z,17.80
2023-05-10T06:46:11.014Z,17.90
2023-05-10T06:48:38.880Z,17.90
2023-05-10T06:51:06.885Z,17.90
2023-05-10T06:53:34.824Z,17.90
2023-05-10T06:56:04.517Z,18.00
2023-05-10T06:58:33.567Z,18.00
2023-05-10T07:01:06.110Z,18.00
2023-05-10T07:03:34.345Z,18.00
2023-05-10T07:06:04.727Z,17.80
2023-05-10T07:08:32.921Z,17.60
2023-05-10T07:11:04.898Z,17.60
2023-05-10T07:13:33.356Z,17.60
2023-05-10T07:16:02.890Z,17.60
2023-05-10T07:18:32.489Z,17.50
2023-05-10T07:21:00.582Z,17.70
2023-05-10T07:23:28.550Z,17.70
2023-05-10T07:25:58.328Z,17.90
2023-05-10T07:28:26.344Z,17.80
2023-05-10T07:30:54.275Z,17.90
2023-05-10T07:33:23.159Z,18.00
2023-05-10T07:35:52.668Z,18.20
2023-05-10T07:38:22.131Z,18.50
2023-05-10T07:40:50.081Z,18.70
2023-05-10T07:43:18.019Z,18.70
2023-05-10T07:45:45.892Z,18.80
2023-05-10T07:48:13.939Z,18.90
2023-05-10T07:50:41.832Z,18.90
2023-05-10T07:53:11.504Z,19.10
2023-05-10T07:55:39.474Z,19.30
2023-05-10T07:58:07.399Z,19.20
2023-05-10T08:00:35.896Z,19.10
2023-05-10T08:03:03.962Z,19.00
2023-05-10T08:05:33.120Z,18.90
2023-05-10T08:08:02.627Z,18.80
2023-05-10T08:10:32.161Z,18.90
2023-05-10T08:13:00.391Z,18.90
2023-05-10T08:15:28.245Z,18.90
2023-05-10T08:17:56.430Z,18.90
2023-05-10T08:20:24.464Z,18.90
2023-05-10T08:22:52.510Z,18.80
2023-05-10T08:25:20.407Z,18.80
2023-05-10T08:27:50.569Z,18.60
2023-05-10T08:30:18.528Z,18.90
2023-05-10T08:32:46.578Z,19.20
2023-05-10T08:35:14.786Z,19.50
2023-05-10T08:37:42.801Z,19.60
2023-05-10T08:40:13.305Z,19.90
2023-05-10T08:42:49.983Z,20.30
2023-05-10T08:45:21.454Z,20.60
2023-05-10T08:47:49.548Z,20.80
2023-05-10T08:50:19.660Z,20.70
2023-05-10T08:52:49.968Z,20.80
2023-05-10T08:55:18.577Z,21.00
2023-05-10T08:57:47.218Z,21.10
2023-05-10T09:00:16.585Z,21.40
2023-05-10T09:02:46.903Z,21.40
2023-05-10T09:05:17.039Z,21.20
2023-05-10T09:07:45.400Z,21.10
2023-05-10T09:10:15.163Z,20.90
2023-05-10T09:12:44.937Z,20.80
2023-05-10T09:15:15.692Z,20.90
2023-05-10T09:17:46.704Z,21.10
2023-05-10T09:20:14.802Z,21.30
2023-05-10T09:22:42.960Z,21.70
2023-05-10T09:25:12.946Z,21.80
2023-05-10T09:27:41.762Z,22.00
2023-05-10T09:30:10.676Z,21.80
2023-05-10T09:32:40.094Z,22.00
2023-05-10T09:35:13.794Z,22.30
2023-05-10T09:37:43.504Z,22.30
2023-05-10T09:40:14.840Z,22.20
2023-05-10T09:42:44.429Z,22.30
2023-05-10T09:45:13.665Z,22.30
2023-05-10T09:47:41.704Z,22.20
2023-05-10T09:50:10.273Z,22.00
2023-05-10T09:52:50.797Z,21.70
2023-05-10T09:55:19.961Z,21.50
2023-05-10T09:57:49.157Z,21.20
2023-05-10T10:00:21.493Z,21.30
2023-05-10T10:02:56.101Z,21.60
2023-05-10T10:05:30.264Z,21.70
2023-05-10T10:08:00.302Z,21.70
2023-05-10T10:10:29.316Z,21.70
2023-05-10T10:12:57.556Z,21.50
2023-05-10T10:15:26.321Z,21.30
2023-05-10T10:17:55.291Z,20.80
2023-05-10T10:20:25.005Z,20.60
2023-05-10T10:22:53.481Z,20.40
2023-05-10T10:25:23.782Z,20.30
2023-05-10T10:28:06.390Z,20.50
2023-05-10T10:30:44.583Z,20.70
2023-05-10T10:33:32.859Z,20.80
2023-05-10T10:36:03.587Z,20.50
2023-05-10T10:38:40.012Z,20.20
2023-05-10T10:41:12.915Z,20.10
2023-05-10T10:43:40.849Z,19.90
2023-05-10T10:46:16.369Z,19.60
2023-05-10T10:48:50.173Z,19.30
2023-05-10T10:51:19.364Z,19.20
2023-05-10T10:53:50.216Z,19.00
2023-05-10T10:56:25.243Z,18.90
2023-05-10T10:58:54.589Z,18.80
2023-05-10T11:01:22.800Z,18.90
2023-05-10T11:04:21.385Z,18.80
2023-05-10T11:06:49.468Z,18.70
2023-05-10T11:09:18.428Z,18.70
2023-05-10T11:11:57.222Z,18.60
2023-05-10T11:14:25.367Z,18.50
2023-05-10T11:16:53.682Z,18.20
2023-05-10T11:19:21.970Z,18.10
2023-05-10T11:21:51.903Z,17.90
2023-05-10T11:24:21.452Z,18.00
2023-05-10T11:26:52.795Z,17.70
2023-05-10T11:29:22.397Z,17.50
2023-05-10T11:31:51.640Z,17.20
2023-05-10T11:34:27.184Z,17.10
2023-05-10T11:36:56.357Z,17.00
2023-05-10T11:39:28.501Z,16.70
2023-05-10T11:41:57.013Z,16.50
2023-05-10T11:44:31.098Z,16.20
2023-05-10T11:47:00.871Z,16.10
2023-05-10T11:49:29.033Z,16.00
2023-05-10T11:52:06.222Z,16.00
2023-05-10T11:54:35.717Z,16.00
2023-05-10T11:57:03.883Z,15.90
2023-05-10T11:59:33.245Z,16.00
2023-05-10T12:02:01.540Z,15.90
2023-05-10T12:04:30.381Z,16.00
2023-05-10T12:06:59.656Z,15.90
2023-05-10T12:09:42.790Z,15.80
2023-05-10T12:12:11.875Z,16.00
2023-05-10T12:14:41.181Z,15.90
2023-05-10T12:17:13.826Z,15.90
2023-05-10T12:19:41.906Z,16.10
2023-05-10T12:22:09.877Z,16.20
2023-05-10T12:24:39.942Z,16.50
2023-05-10T12:29:57.037Z,16.40
2023-05-10T12:32:40.011Z,16.40
2023-05-10T12:35:08.953Z,16.50
2023-05-10T12:37:39.915Z,16.70
2023-05-10T12:40:10.137Z,17.00
2023-05-10T12:42:38.308Z,17.20
2023-05-10T12:45:09.581Z,17.40
2023-05-10T12:47:37.908Z,17.60
2023-05-10T12:50:06.936Z,17.60
2023-05-10T12:52:35.012Z,17.80
2023-05-10T12:55:03.947Z,17.90
2023-05-10T12:57:31.982Z,17.90
2023-05-10T12:59:59.846Z,17.80
2023-05-10T13:02:29.365Z,17.60
2023-05-10T13:04:57.417Z,17.60
2023-05-10T13:07:25.311Z,17.70
2023-05-10T13:09:53.270Z,17.60
2023-05-10T13:12:21.423Z,17.50
2023-05-10T13:14:50.424Z,17.50
2023-05-10T13:17:18.353Z,17.40
2023-05-10T13:19:47.693Z,17.50
2023-05-10T13:22:18.731Z,17.50
2023-05-10T13:24:50.984Z,17.40
2023-05-10T13:27:18.850Z,17.40
2023-05-10T13:29:48.577Z,17.50
2023-05-10T13:32:17.194Z,17.50
2023-05-10T13:34:45.237Z,17.50
2023-05-10T13:37:16.104Z,17.40
2023-05-10T13:39:44.049Z,17.20
2023-05-10T13:42:11.953Z,17.30
2023-05-10T13:44:40.061Z,17.40
2023-05-10T13:47:07.950Z,17.30
2023-05-10T13:49:35.861Z,17.30
2023-05-10T13:52:07.567Z,17.30
2023-05-10T13:54:36.913Z,17.20
2023-05-10T13:57:05.407Z,17.40
2023-05-10T13:59:33.524Z,17.40
2023-05-10T14:02:03.401Z,17.40
2023-05-10T14:04:31.458Z,17.50
2023-05-10T14:06:59.384Z,17.70
2023-05-10T14:09:27.304Z,17.90
2023-05-10T14:11:56.767Z,18.10
2023-05-10T14:14:25.816Z,18.30
2023-05-10T14:16:53.976Z,18.40
2023-05-10T14:19:21.925Z,18.40
2023-05-10T14:21:49.879Z,18.40
2023-05-10T14:24:17.978Z,18.50
2023-05-10T14:26:45.883Z,18.40
2023-05-10T14:29:15.136Z,18.20
2023-05-10T14:31:43.079Z,18.20
2023-05-10T14:34:11.010Z,18.40
2023-05-10T14:36:38.835Z,18.60
2023-05-10T14:39:07.522Z,18.90
2023-05-10T14:41:35.434Z,18.90
2023-05-10T14:44:04.283Z,19.10
2023-05-10T14:46:33.594Z,19.10
2023-05-10T14:49:02.327Z,19.00
2023-05-10T14:51:30.207Z,18.90
2023-05-10T14:53:58.433Z,18.90
2023-05-10T14:56:26.717Z,19.00
2023-05-10T14:58:54.741Z,19.00
2023-05-10T15:01:23.276Z,19.00
2023-05-10T15:03:53.219Z,19.20
2023-05-10T15:06:26.695Z,19.30
2023-05-10T15:08:54.658Z,19.30
2023-05-10T15:11:22.524Z,19.10
2023-05-10T15:13:50.436Z,19.10
2023-05-10T15:16:18.287Z,19.10
2023-05-10T15:18:46.463Z,19.10
2023-05-10T15:21:15.763Z,19.10
2023-05-10T15:23:43.734Z,19.10
2023-05-10T15:26:11.577Z,19.10
2023-05-10T15:28:40.307Z,19.20
2023-05-10T15:31:08.249Z,19.10
2023-05-10T15:33:36.195Z,19.00
2023-05-10T15:36:04.769Z,19.00
2023-05-10T15:38:34.192Z,19.10
2023-05-10T15:41:02.209Z,19.10
2023-05-10T15:43:30.192Z,18.90
2023-05-10T15:45:58.095Z,18.80
2023-05-10T15:48:26.262Z,18.80
2023-05-10T15:50:54.168Z,18.80
2023-05-10T15:53:22.115Z,18.70
2023-05-10T15:55:51.536Z,18.80
2023-05-10T15:58:20.106Z,18.90
2023-05-10T16:00:48.029Z,18.90
2023-05-10T16:03:16.193Z,18.90
2023-05-10T16:05:44.089Z,19.00
2023-05-10T16:08:12.214Z,18.90
2023-05-10T16:10:40.501Z,18.90
2023-05-10T16:13:09.944Z,18.90
2023-05-10T16:15:37.905Z,18.90
2023-05-10T16:18:06.488Z,19.00
2023-05-10T16:20:34.492Z,19.00
2023-05-10T16:23:06.250Z,18.90
2023-05-10T16:25:34.772Z,19.00
2023-05-10T16:28:02.653Z,19.00
2023-05-10T16:30:32.338Z,19.10
2023-05-10T16:33:01.744Z,19.20
2023-05-10T16:35:30.512Z,19.20
2023-05-10T16:37:58.646Z,19.40
2023-05-10T16:40:26.632Z,19.50
2023-05-10T16:42:54.490Z,19.70
2023-05-10T16:45:22.614Z,19.80
2023-05-10T16:47:53.673Z,19.70
2023-05-10T16:50:21.892Z,19.70
2023-05-10T16:52:49.763Z,19.60
2023-05-10T16:55:18.067Z,19.50
2023-05-10T16:57:46.131Z,19.50
2023-05-10T17:00:15.531Z,19.50
2023-05-10T17:02:43.723Z,19.50
2023-05-10T17:05:13.220Z,19.40
2023-05-10T17:07:41.245Z,19.30
2023-05-10T17:10:10.039Z,19.20
2023-05-10T17:12:38.058Z,19.20
2023-05-10T17:15:07.317Z,19.10
2023-05-10T17:17:35.528Z,19.00
2023-05-10T17:20:04.886Z,19.00
2023-05-10T17:22:35.023Z,19.00
2023-05-10T17:25:02.989Z,18.90
2023-05-10T17:27:31.436Z,19.00
2023-05-10T17:29:59.741Z,18.90
2023-05-10T17:32:27.735Z,18.90
2023-05-10T17:34:55.685Z,18.80
2023-05-10T17:37:23.756Z,18.80
2023-05-10T17:39:52.986Z,18.70
2023-05-10T17:42:20.969Z,18.60
2023-05-10T17:44:49.012Z,18.50
2023-05-10T17:47:18.518Z,18.50
2023-05-10T17:49:46.642Z,18.40
2023-05-10T17:52:14.567Z,18.50
2023-05-10T17:54:42.666Z,18.50
2023-05-10T17:57:11.946Z,18.40
2023-05-10T17:59:39.930Z,18.40
2023-05-10T18:02:08.075Z,18.30
2023-05-10T18:04:36.138Z,18.30
2023-05-10T18:07:04.205Z,18.10
2023-05-10T18:09:33.987Z,18.00
2023-05-10T18:12:03.697Z,18.00
2023-05-10T18:14:40.674Z,17.90
2023-05-10T18:17:10.088Z,17.80
2023-05-10T18:19:38.146Z,17.70
2023-05-10T18:22:07.446Z,17.60
2023-05-10T18:24:38.869Z,17.60
2023-05-10T18:27:08.631Z,17.50
2023-05-10T18:29:37.977Z,17.40
2023-05-10T18:32:07.687Z,17.40
2023-05-10T18:34:35.759Z,17.40
2023-05-10T18:37:07.131Z,17.40
2023-05-10T18:39:35.419Z,17.40
2023-05-10T18:42:05.046Z,17.40
2023-05-10T18:44:33.061Z,17.30
2023-05-10T18:47:02.357Z,17.30
2023-05-10T18:49:30.353Z,17.20
2023-05-10T18:51:58.350Z,17.10
2023-05-10T18:54:26.706Z,17.10
2023-05-10T18:56:54.591Z,17.20
2023-05-10T18:59:22.810Z,17.10
2023-05-10T19:01:51.540Z,17.00
2023-05-10T19:04:21.023Z,17.00
2023-05-10T19:06:49.138Z,17.00
2023-05-10T19:09:19.969Z,17.00
2023-05-10T19:11:48.402Z,17.00
2023-05-10T19:14:16.287Z,16.90
2023-05-10T19:16:44.257Z,16.90
2023-05-10T19:19:13.276Z,16.90
2023-05-10T19:21:42.764Z,16.90
2023-05-10T19:24:11.872Z,16.70
2023-05-10T19:26:39.869Z,16.70
2023-05-10T19:29:07.876Z,16.50
2023-05-10T19:31:35.857Z,16.10
2023-05-10T19:34:05.396Z,16.00
2023-05-10T19:36:34.037Z,15.90
2023-05-10T19:39:03.358Z,15.70
2023-05-10T19:41:31.331Z,15.60
2023-05-10T19:43:59.721Z,15.50
2023-05-10T19:46:27.951Z,15.40
2023-05-10T19:48:56.176Z,15.40
2023-05-10T19:51:24.197Z,15.30
2023-05-10T19:53:52.331Z,15.20
2023-05-10T19:56:21.698Z,15.30
2023-05-10T19:58:49.677Z,15.20
2023-05-10T20:01:17.584Z,15.20
2023-05-10T20:03:45.768Z,15.20
2023-05-10T20:06:13.755Z,15.20
2023-05-10T20:08:41.785Z,15.10
2023-05-10T20:11:11.269Z,15.10
2023-05-10T20:13:40.947Z,15.20
2023-05-10T20:16:08.962Z,15.20
2023-05-10T20:18:38.062Z,15.30
2023-05-10T20:21:06.407Z,15.30
2023-05-10T20:23:34.309Z,15.30
2023-05-10T20:26:02.701Z,15.30
2023-05-10T20:28:30.641Z,15.20
2023-05-10T20:31:01.358Z,15.10
2023-05-10T20:33:29.313Z,15.10
2023-05-10T20:35:57.337Z,15.00
2023-05-10T20:38:25.319Z,15.00
2023-05-10T20:40:53.234Z,15.00
2023-05-10T20:43:21.361Z,14.90
2023-05-10T20:45:49.591Z,14.90
2023-05-10T20:48:19.675Z,14.80
2023-05-10T20:50:47.727Z,14.90
2023-05-10T20:53:15.778Z,14.70
2023-05-10T20:55:43.721Z,14.70
2023-05-10T20:58:11.723Z,14.70
2023-05-10T21:00:39.740Z,14.70
2023-05-10T21:03:07.700Z,14.70
2023-05-10T21:05:37.050Z,14.60
2023-05-10T21:08:05.057Z,14.40
2023-05-10T21:10:33.010Z,14.40
2023-05-10T21:13:01.016Z,14.40
2023-05-10T21:15:29.044Z,14.30
2023-05-10T21:17:56.987Z,14.30
2023-05-10T21:20:25.208Z,14.20
2023-05-10T21:22:54.599Z,14.20
2023-05-10T21:25:23.565Z,14.20
2023-05-10T21:27:51.451Z,14.10
2023-05-10T21:30:20.193Z,14.10
2023-05-10T21:32:48.260Z,14.00
2023-05-10T21:35:16.252Z,13.80
2023-05-10T21:37:44.124Z,13.70
2023-05-10T21:40:14.380Z,13.70
2023-05-10T21:42:42.296Z,13.70
2023-05-10T21:45:10.769Z,13.70
2023-05-10T21:47:38.722Z,13.70
2023-05-10T21:50:09.804Z,13.70
2023-05-10T21:52:37.888Z,13.60
2023-05-10T21:55:08.378Z,13.60
2023-05-10T21:57:37.756Z,13.60
2023-05-10T22:00:06.962Z,13.60
2023-05-10T22:02:35.008Z,13.60
2023-05-10T22:05:03.568Z,13.70
2023-05-10T22:07:31.832Z,13.60
2023-05-10T22:09:59.907Z,13.60
2023-05-10T22:12:27.870Z,13.60
2023-05-10T22:15:09.293Z,13.60
2023-05-10T22:17:40.332Z,13.70
2023-05-10T22:20:09.964Z,13.70
2023-05-10T22:22:37.984Z,13.70
2023-05-10T22:25:07.313Z,13.70
2023-05-10T22:27:35.419Z,13.70
2023-05-10T22:30:05.882Z,13.80
2023-05-10T22:32:34.528Z,13.80
2023-05-10T22:35:03.193Z,13.80
2023-05-10T22:37:31.270Z,13.80
2023-05-10T22:39:59.204Z,13.70
2023-05-10T22:42:27.201Z,13.70
2023-05-10T22:44:55.111Z,13.70
2023-05-10T22:47:24.414Z,13.80
2023-05-10T22:49:52.352Z,13.70
2023-05-10T22:52:20.326Z,13.50
2023-05-10T22:54:48.236Z,13.50
2023-05-10T22:57:16.337Z,13.40
2023-05-10T22:59:44.570Z,13.40
2023-05-10T23:02:14.185Z,13.40
2023-05-10T23:04:43.516Z,13.40
2023-05-10T23:07:11.717Z,13.40
2023-05-10T23:09:39.624Z,13.50
2023-05-10T23:12:07.686Z,13.40
2023-05-10T23:14:35.726Z,13.50
2023-05-10T23:17:03.892Z,13.50
2023-05-10T23:19:31.878Z,13.50
2023-05-10T23:22:01.216Z,13.50
2023-05-10T23:24:29.147Z,13.60
2023-05-10T23:26:57.113Z,13.50
2023-05-10T23:29:26.231Z,13.40
2023-05-10T23:31:54.276Z,13.40
2023-05-10T23:34:22.299Z,13.40
2023-05-10T23:36:50.285Z,13.50
2023-05-10T23:39:19.528Z,13.50
2023-05-10T23:41:47.812Z,13.40
2023-05-10T23:44:15.811Z,13.30
2023-05-10T23:46:43.807Z,13.30
2023-05-10T23:49:11.717Z,13.30
2023-05-10T23:51:39.674Z,13.40
2023-05-10T23:54:08.580Z,13.40
2023-05-10T23:56:37.892Z,13.40
2023-05-10T23:59:06.626Z,13.50
